createdAt,value
2018-07-13T00:02:12.482Z,15.83
2018-07-13T00:04:40.761Z,15.92
2018-07-13T00:07:09.011Z,15.73
2018-07-13T00:09:41.267Z,15.76
2018-07-13T00:12:09.525Z,15.66
2018-07-13T00:14:37.946Z,15.58
2018-07-13T00:17:06.276Z,15.63
2018-07-13T00:23:06.039Z,15.66
2018-07-13T00:25:35.546Z,15.81
2018-07-13T00:28:03.796Z,15.89
2018-07-13T00:30:32.073Z,15.91
2018-07-13T00:33:00.318Z,15.79
2018-07-13T00:35:28.722Z,15.97
2018-07-13T00:37:56.965Z,15.83
2018-07-13T00:40:25.506Z,15.80
2018-07-13T00:42:53.937Z,15.82
2018-07-13T00:45:22.237Z,15.61
2018-07-13T00:47:50.570Z,15.49
2018-07-13T00:50:19.992Z,15.38
2018-07-13T00:52:48.557Z,15.43
2018-07-13T00:55:16.872Z,15.51
2018-07-13T00:57:45.129Z,15.50
2018-07-13T01:00:13.373Z,15.57
2018-07-13T01:02:41.754Z,15.71
2018-07-13T01:05:10.018Z,15.77
2018-07-13T01:07:38.633Z,15.69
2018-07-13T01:10:07.965Z,15.66
2018-07-13T01:12:36.258Z,15.79
2018-07-13T01:15:06.576Z,15.66
2018-07-13T01:17:34.868Z,15.67
2018-07-13T01:20:03.137Z,15.79
2018-07-13T01:22:31.457Z,15.76
2018-07-13T01:24:59.709Z,15.83
2018-07-13T01:27:28.797Z,15.86
2018-07-13T01:29:57.913Z,15.89
2018-07-13T01:32:26.381Z,15.82
2018-07-13T01:34:54.628Z,15.87
2018-07-13T01:37:22.920Z,15.93
2018-07-13T01:39:51.175Z,15.82
2018-07-13T01:42:19.468Z,15.75
2018-07-13T01:44:47.720Z,15.61
2018-07-13T01:47:16.001Z,15.63
2018-07-13T01:49:44.291Z,15.62
2018-07-13T01:52:12.800Z,15.74
2018-07-13T01:54:41.061Z,15.88
2018-07-13T01:57:10.226Z,15.82
2018-07-13T01:59:38.478Z,15.83
2018-07-13T02:02:06.753Z,15.70
2018-07-13T02:04:35.057Z,15.68
2018-07-13T02:07:04.317Z,15.60
2018-07-13T02:09:32.631Z,15.63
2018-07-13T02:12:00.861Z,15.68
2018-07-13T02:14:29.133Z,15.74
2018-07-13T02:16:57.376Z,15.69
2018-07-13T02:19:25.685Z,15.75
2018-07-13T02:21:54.084Z,15.93
2018-07-13T02:24:22.385Z,16.04
2018-07-13T02:26:51.121Z,16.07
2018-07-13T02:29:22.654Z,15.90
2018-07-13T02:31:50.984Z,16.12
2018-07-13T02:34:19.256Z,16.12
2018-07-13T02:36:47.517Z,15.93
2018-07-13T02:39:15.785Z,15.82
2018-07-13T02:41:44.046Z,15.68
2018-07-13T02:44:12.329Z,15.77
2018-07-13T02:46:40.581Z,15.76
2018-07-13T02:49:08.821Z,15.74
2018-07-13T02:51:38.145Z,15.84
2018-07-13T02:54:06.501Z,15.82
2018-07-13T02:56:34.786Z,15.76
2018-07-13T02:59:03.057Z,15.67
2018-07-13T03:01:31.345Z,15.55
2018-07-13T03:04:00.613Z,15.69
2018-07-13T03:06:28.919Z,15.72
2018-07-13T03:08:58.440Z,15.77
2018-07-13T03:11:26.857Z,15.61
2018-07-13T03:13:55.138Z,15.69
2018-07-13T03:16:23.457Z,15.84
2018-07-13T03:18:51.705Z,16.01
2018-07-13T03:21:20.109Z,15.95
2018-07-13T03:23:48.476Z,15.93
2018-07-13T03:26:16.937Z,16.18
2018-07-13T03:28:45.217Z,16.06
2018-07-13T03:31:13.525Z,16.06
2018-07-13T03:33:41.890Z,15.97
2018-07-13T03:36:10.287Z,15.98
2018-07-13T03:38:38.638Z,16.11
2018-07-13T03:41:07.169Z,16.20
2018-07-13T03:43:35.497Z,16.28
2018-07-13T03:46:03.782Z,16.14
2018-07-13T03:48:32.214Z,16.31
2018-07-13T03:51:00.518Z,16.28
2018-07-13T03:53:28.925Z,16.21
2018-07-13T03:55:58.215Z,16.28
2018-07-13T03:58:26.621Z,16.16
2018-07-13T04:00:54.981Z,16.19
2018-07-13T04:03:23.389Z,16.23
2018-07-13T04:05:51.709Z,16.24
2018-07-13T04:08:20.005Z,16.31
2018-07-13T04:10:48.365Z,16.36
2018-07-13T04:13:16.777Z,16.37
2018-07-13T04:15:45.215Z,16.41
2018-07-13T04:18:17.349Z,16.35
2018-07-13T04:20:45.685Z,16.09
2018-07-13T04:23:14.094Z,16.12
2018-07-13T04:25:42.659Z,16.27
2018-07-13T04:28:11.045Z,16.27
2018-07-13T04:30:39.421Z,16.12
2018-07-13T04:33:07.813Z,16.19
2018-07-13T04:35:36.145Z,16.36
2018-07-13T04:38:05.470Z,16.04
2018-07-13T04:40:33.842Z,16.11
2018-07-13T04:43:02.245Z,16.08
2018-07-13T04:45:30.617Z,16.38
2018-07-13T04:47:59.048Z,16.54
2018-07-13T04:50:27.411Z,16.48
2018-07-13T04:52:55.945Z,16.45
2018-07-13T04:55:24.979Z,16.54
2018-07-13T04:57:53.422Z,16.62
2018-07-13T05:00:22.033Z,16.43
2018-07-13T05:02:51.817Z,16.50
2018-07-13T05:05:21.206Z,16.68
2018-07-13T05:07:49.682Z,16.74
2018-07-13T05:10:19.621Z,16.77
2018-07-13T05:12:49.006Z,16.87
2018-07-13T05:15:17.296Z,16.68
2018-07-13T05:17:45.731Z,16.64
2018-07-13T05:20:14.023Z,16.87
2018-07-13T05:22:42.745Z,16.89
2018-07-13T05:25:12.037Z,17.26
2018-07-13T05:27:40.797Z,17.26
2018-07-13T05:30:09.178Z,17.13
2018-07-13T05:32:37.677Z,17.41
2018-07-13T05:35:07.015Z,17.45
2018-07-13T05:37:35.302Z,17.33
2018-07-13T05:40:04.805Z,17.40
2018-07-13T05:42:33.646Z,17.65
2018-07-13T05:45:01.918Z,18.19
2018-07-13T05:47:30.430Z,17.85
2018-07-13T05:49:58.713Z,17.91
2018-07-13T05:52:27.369Z,17.84
2018-07-13T05:54:55.669Z,18.00
2018-07-13T05:57:23.982Z,17.89
2018-07-13T05:59:52.285Z,18.12
2018-07-13T06:02:20.601Z,18.13
2018-07-13T06:04:48.881Z,18.24
2018-07-13T06:07:17.177Z,18.36
2018-07-13T06:09:45.507Z,18.38
2018-07-13T06:12:13.772Z,18.32
2018-07-13T06:14:42.033Z,18.30
2018-07-13T06:17:10.328Z,18.55
2018-07-13T06:19:38.593Z,18.87
2018-07-13T06:22:06.921Z,18.72
2018-07-13T06:24:35.205Z,18.83
2018-07-13T06:27:04.561Z,18.86
2018-07-13T06:29:32.877Z,18.68
2018-07-13T06:32:01.197Z,18.77
2018-07-13T06:34:29.507Z,18.98
2018-07-13T06:36:57.781Z,18.94
2018-07-13T06:39:26.077Z,19.11
2018-07-13T06:41:55.457Z,19.35
2018-07-13T06:44:24.761Z,19.26
2018-07-13T06:46:53.042Z,19.41
2018-07-13T06:49:21.338Z,19.69
2018-07-13T06:51:49.609Z,19.35
2018-07-13T06:54:17.957Z,19.33
2018-07-13T06:56:46.281Z,19.55
2018-07-13T06:59:15.778Z,19.81
2018-07-13T07:01:44.746Z,19.73
2018-07-13T07:04:23.174Z,20.23
2018-07-13T07:06:51.597Z,20.49
2018-07-13T07:09:21.341Z,20.71
2018-07-13T07:13:04.595Z,20.46
2018-07-13T07:15:32.934Z,20.78
2018-07-13T07:18:01.186Z,20.85
2018-07-13T07:20:29.493Z,20.92
2018-07-13T07:22:58.790Z,20.73
2018-07-13T07:25:27.325Z,21.09
2018-07-13T07:27:55.596Z,21.36
2018-07-13T07:30:23.922Z,21.25
2018-07-13T07:32:52.165Z,21.70
2018-07-13T07:35:20.497Z,21.23
2018-07-13T07:37:49.783Z,21.23
2018-07-13T07:40:18.086Z,21.61
2018-07-13T07:42:46.377Z,21.16
2018-07-13T07:45:14.730Z,21.10
2018-07-13T07:47:42.982Z,20.97
2018-07-13T07:50:11.264Z,21.21
2018-07-13T07:52:39.526Z,21.34
2018-07-13T07:55:08.810Z,21.44
2018-07-13T07:57:37.105Z,21.38
2018-07-13T08:00:05.461Z,21.83
2018-07-13T08:02:33.725Z,21.84
2018-07-13T08:05:01.973Z,21.95
2018-07-13T08:07:30.310Z,21.72
2018-07-13T08:09:58.545Z,21.83
2018-07-13T08:12:26.836Z,22.19
2018-07-13T08:14:55.373Z,22.38
2018-07-13T08:17:23.742Z,21.84
2018-07-13T08:19:52.025Z,21.81
2018-07-13T08:22:24.662Z,21.94
2018-07-13T08:24:56.253Z,22.08
2018-07-13T08:27:27.428Z,22.24
2018-07-13T08:29:56.904Z,22.38
2018-07-13T08:32:25.365Z,22.67
2018-07-13T08:34:53.606Z,22.36
2018-07-13T08:37:21.880Z,22.18
2018-07-13T08:39:50.129Z,22.73
2018-07-13T08:42:18.453Z,22.97
2018-07-13T08:44:46.729Z,23.09
2018-07-13T08:47:15.014Z,22.43
2018-07-13T08:49:43.301Z,22.66
2018-07-13T08:52:11.597Z,22.73
2018-07-13T08:54:39.993Z,22.81
2018-07-13T08:57:08.300Z,22.84
2018-07-13T08:59:36.768Z,23.34
2018-07-13T09:02:05.045Z,23.50
2018-07-13T09:04:33.501Z,24.09
2018-07-13T09:07:03.757Z,24.32
2018-07-13T09:09:35.581Z,24.00
2018-07-13T09:12:03.893Z,23.39
2018-07-13T09:14:32.168Z,23.79
2018-07-13T09:17:00.476Z,23.59
2018-07-13T09:19:28.781Z,23.35
2018-07-13T09:21:57.209Z,23.44
2018-07-13T09:24:26.574Z,24.12
2018-07-13T09:26:54.828Z,24.31
2018-07-13T09:29:23.085Z,24.02
2018-07-13T09:31:51.369Z,24.14
2018-07-13T09:34:21.684Z,24.06
2018-07-13T09:36:49.988Z,23.93
2018-07-13T09:39:19.236Z,23.89
2018-07-13T09:41:47.578Z,24.21
2018-07-13T09:44:15.833Z,24.52
2018-07-13T09:46:44.205Z,24.39
2018-07-13T09:49:12.409Z,24.12
2018-07-13T09:51:40.707Z,24.00
2018-07-13T09:54:09.193Z,24.26
2018-07-13T09:56:37.367Z,24.42
2018-07-13T09:59:05.866Z,24.50
2018-07-13T10:01:34.192Z,24.69
2018-07-13T10:04:03.557Z,24.79
2018-07-13T10:06:32.960Z,24.76
2018-07-13T10:09:01.232Z,24.31
2018-07-13T10:11:29.537Z,24.60
2018-07-13T10:13:57.873Z,24.72
2018-07-13T10:16:27.189Z,24.61
2018-07-13T10:18:55.484Z,24.62
2018-07-13T10:21:23.762Z,24.66
2018-07-13T10:23:52.537Z,24.99
2018-07-13T10:26:38.869Z,24.75
2018-07-13T10:29:19.356Z,25.10
2018-07-13T10:31:48.071Z,25.48
2018-07-13T10:34:18.013Z,25.41
2018-07-13T10:36:55.789Z,25.87
2018-07-13T10:39:24.325Z,25.54
2018-07-13T10:41:52.889Z,25.19
2018-07-13T10:44:21.201Z,25.51
2018-07-13T10:46:49.465Z,25.66
2018-07-13T10:49:17.769Z,25.63
2018-07-13T10:51:46.029Z,25.55
2018-07-13T10:54:14.361Z,25.69
2018-07-13T10:56:42.629Z,25.20
2018-07-13T10:59:11.000Z,25.68
2018-07-13T11:01:39.501Z,25.57
2018-07-13T11:04:08.388Z,25.89
2018-07-13T11:06:36.633Z,26.04
2018-07-13T11:09:06.560Z,26.62
2018-07-13T11:11:35.085Z,26.41
2018-07-13T11:14:03.412Z,26.35
2018-07-13T11:16:31.601Z,26.48
2018-07-13T11:18:59.884Z,26.66
2018-07-13T11:21:29.413Z,26.76
2018-07-13T11:23:57.664Z,26.36
2018-07-13T11:26:26.169Z,27.12
2018-07-13T11:28:54.838Z,27.04
2018-07-13T11:31:23.104Z,26.53
2018-07-13T11:33:52.375Z,26.29
2018-07-13T11:36:21.694Z,26.48
2018-07-13T11:38:49.953Z,26.21
2018-07-13T11:41:18.237Z,26.26
2018-07-13T11:43:46.493Z,26.73
2018-07-13T11:46:14.947Z,26.52
2018-07-13T11:48:43.181Z,25.99
2018-07-13T11:51:12.624Z,26.40
2018-07-13T11:53:41.314Z,26.43
2018-07-13T11:56:09.745Z,26.95
2018-07-13T11:58:38.300Z,27.10
2018-07-13T12:01:08.238Z,26.92
2018-07-13T12:03:36.538Z,27.33
2018-07-13T12:06:05.331Z,27.58
2018-07-13T12:08:33.633Z,26.41
2018-07-13T12:11:01.870Z,26.89
2018-07-13T12:13:30.141Z,27.24
2018-07-13T12:15:58.386Z,26.75
2018-07-13T12:18:26.832Z,26.16
2018-07-13T12:20:55.161Z,26.16
2018-07-13T12:23:23.569Z,26.32
2018-07-13T12:25:53.026Z,26.15
2018-07-13T12:28:21.693Z,26.69
2018-07-13T12:30:50.089Z,26.42
2018-07-13T12:33:18.417Z,26.47
2018-07-13T12:35:46.689Z,26.47
2018-07-13T12:38:14.993Z,26.37
2018-07-13T12:40:43.258Z,26.47
2018-07-13T12:43:11.558Z,26.43
2018-07-13T12:45:39.818Z,26.81
2018-07-13T12:48:08.090Z,26.67
2018-07-13T12:50:36.341Z,26.73
2018-07-13T12:53:05.649Z,27.49
2018-07-13T12:55:33.917Z,26.86
2018-07-13T12:58:02.203Z,27.03
2018-07-13T13:00:30.541Z,26.79
2018-07-13T13:02:58.797Z,26.67
2018-07-13T13:05:27.103Z,26.25
2018-07-13T13:07:55.378Z,26.58
2018-07-13T13:10:24.684Z,26.47
2018-07-13T13:12:53.281Z,26.09
2018-07-13T13:15:21.613Z,26.23
2018-07-13T13:17:49.883Z,26.52
2018-07-13T13:20:18.157Z,26.89
2018-07-13T13:22:46.401Z,26.63
2018-07-13T13:25:14.705Z,26.85
2018-07-13T13:27:43.932Z,27.35
2018-07-13T13:30:12.205Z,26.32
2018-07-13T13:32:40.445Z,25.99
2018-07-13T13:35:08.746Z,25.91
2018-07-13T13:37:37.017Z,26.50
2018-07-13T13:40:05.322Z,26.60
2018-07-13T13:42:33.578Z,25.99
2018-07-13T13:45:01.857Z,26.13
2018-07-13T13:47:30.133Z,26.56
2018-07-13T13:49:58.432Z,27.37
2018-07-13T13:52:26.733Z,28.04
2018-07-13T13:54:55.013Z,29.36
2018-07-13T13:57:23.345Z,30.18
2018-07-13T13:59:51.671Z,29.63
2018-07-13T14:02:19.921Z,30.53
2018-07-13T14:04:48.158Z,30.67
2018-07-13T14:07:16.473Z,30.00
2018-07-13T14:09:44.713Z,31.06
2018-07-13T14:12:13.117Z,35.11
2018-07-13T14:14:41.336Z,32.43
2018-07-13T14:17:10.705Z,31.95
2018-07-13T14:19:40.004Z,32.16
2018-07-13T14:22:09.308Z,35.30
2018-07-13T14:24:37.649Z,35.32
2018-07-13T14:27:05.943Z,33.81
2018-07-13T14:29:34.193Z,32.91
2018-07-13T14:32:02.481Z,33.50
2018-07-13T14:34:30.807Z,36.27
2018-07-13T14:36:59.081Z,38.04
2018-07-13T14:39:27.337Z,36.46
2018-07-13T14:41:55.635Z,35.83
2018-07-13T14:44:23.905Z,35.48
2018-07-13T14:46:52.205Z,37.10
2018-07-13T14:49:20.470Z,34.51
2018-07-13T14:51:48.739Z,33.39
2018-07-13T14:54:17.060Z,35.29
2018-07-13T14:56:45.325Z,35.51
2018-07-13T14:59:13.612Z,34.39
2018-07-13T15:01:41.864Z,33.73
2018-07-13T15:04:12.300Z,35.97
2018-07-13T15:06:40.705Z,34.72
2018-07-13T15:09:08.809Z,33.59
2018-07-13T15:11:37.133Z,32.46
2018-07-13T15:14:05.438Z,33.65
2018-07-13T15:16:33.787Z,33.35
2018-07-13T15:19:02.076Z,35.39
2018-07-13T15:21:30.352Z,34.50
2018-07-13T15:23:58.685Z,32.88
2018-07-13T15:26:26.961Z,32.69
2018-07-13T15:28:55.263Z,32.87
2018-07-13T15:31:23.525Z,35.40
2018-07-13T15:33:51.849Z,34.74
2018-07-13T15:36:20.109Z,32.83
2018-07-13T15:38:48.361Z,32.04
2018-07-13T15:41:16.659Z,31.54
2018-07-13T15:43:45.232Z,31.94
2018-07-13T15:46:13.554Z,33.24
2018-07-13T15:48:41.972Z,34.83
2018-07-13T15:51:10.276Z,35.88
2018-07-13T15:53:38.624Z,35.38
2018-07-13T15:56:07.158Z,35.68
2018-07-13T15:58:35.510Z,33.88
2018-07-13T16:01:03.773Z,32.98
2018-07-13T16:03:32.048Z,32.96
2018-07-13T16:06:10.006Z,34.84
2018-07-13T16:08:39.305Z,32.89
2018-07-13T16:11:07.577Z,31.34
2018-07-13T16:13:35.938Z,32.81
2018-07-13T16:16:06.307Z,32.39
2018-07-13T16:18:34.629Z,34.64
2018-07-13T16:21:02.957Z,34.52
2018-07-13T16:23:31.221Z,32.87
2018-07-13T16:25:59.526Z,31.08
2018-07-13T16:28:27.802Z,30.99
2018-07-13T16:30:56.103Z,33.27
2018-07-13T16:33:24.349Z,32.69
2018-07-13T16:35:52.613Z,31.99
2018-07-13T16:38:20.905Z,29.25
2018-07-13T16:40:49.156Z,29.69
2018-07-13T16:43:17.421Z,31.71
2018-07-13T16:45:45.697Z,31.98
2018-07-13T16:48:13.969Z,31.12
2018-07-13T16:50:42.354Z,29.69
2018-07-13T16:53:10.529Z,31.94
2018-07-13T16:55:38.849Z,30.30
2018-07-13T16:58:07.162Z,32.16
2018-07-13T17:00:35.430Z,31.67
2018-07-13T17:03:03.766Z,30.00
2018-07-13T17:05:31.974Z,28.72
2018-07-13T17:08:00.242Z,29.92
2018-07-13T17:10:28.493Z,28.26
2018-07-13T17:12:56.775Z,30.82
2018-07-13T17:15:25.034Z,30.33
2018-07-13T17:17:53.327Z,29.40
2018-07-13T17:20:22.692Z,30.12
2018-07-13T17:22:50.936Z,29.32
2018-07-13T17:25:19.186Z,31.63
2018-07-13T17:27:48.521Z,31.20
2018-07-13T17:30:16.817Z,29.93
2018-07-13T17:32:45.083Z,29.67
2018-07-13T17:35:13.350Z,28.78
2018-07-13T17:37:41.573Z,29.19
2018-07-13T17:40:10.841Z,27.52
2018-07-13T17:42:39.139Z,27.35
2018-07-13T17:45:07.397Z,24.14
2018-07-13T17:47:35.757Z,22.94
2018-07-13T17:50:04.112Z,22.23
2018-07-13T17:52:32.421Z,21.88
2018-07-13T17:55:01.805Z,21.62
2018-07-13T17:57:31.180Z,21.67
2018-07-13T17:59:59.481Z,21.71
2018-07-13T18:02:27.743Z,21.47
2018-07-13T18:04:56.021Z,21.48
2018-07-13T18:07:24.281Z,20.95
2018-07-13T18:09:52.576Z,20.98
2018-07-13T18:12:20.913Z,20.99
2018-07-13T18:14:49.342Z,20.64
2018-07-13T18:17:17.564Z,20.75
2018-07-13T18:19:45.865Z,20.58
2018-07-13T18:22:14.149Z,20.27
2018-07-13T18:24:42.389Z,20.33
2018-07-13T18:27:10.668Z,20.13
2018-07-13T18:29:38.909Z,20.29
2018-07-13T18:32:07.460Z,20.21
2018-07-13T18:34:35.731Z,20.04
2018-07-13T18:37:04.001Z,19.98
2018-07-13T18:39:33.313Z,19.84
2018-07-13T18:42:02.630Z,19.82
2018-07-13T18:44:31.904Z,19.72
2018-07-13T18:47:01.174Z,19.66
2018-07-13T18:49:29.414Z,19.23
2018-07-13T18:51:57.829Z,19.39
2018-07-13T18:54:26.146Z,19.31
2018-07-13T18:56:54.438Z,19.25
2018-07-13T18:59:22.728Z,19.40
2018-07-13T19:01:51.028Z,19.42
2018-07-13T19:04:19.301Z,19.29
2018-07-13T19:06:47.577Z,19.07
2018-07-13T19:09:15.838Z,18.83
2018-07-13T19:11:44.136Z,18.67
2018-07-13T19:14:12.393Z,18.80
2018-07-13T19:16:40.726Z,18.92
2018-07-13T19:19:08.976Z,18.99
2018-07-13T19:21:37.394Z,19.08
2018-07-13T19:24:05.693Z,18.78
2018-07-13T19:26:34.973Z,18.71
2018-07-13T19:29:03.324Z,18.70
2018-07-13T19:31:31.646Z,18.71
2018-07-13T19:33:59.909Z,18.73
2018-07-13T19:36:28.176Z,18.48
2018-07-13T19:38:56.445Z,18.58
2018-07-13T19:41:24.689Z,18.53
2018-07-13T19:43:52.981Z,18.25
2018-07-13T19:46:21.236Z,18.18
2018-07-13T19:48:49.608Z,18.23
2018-07-13T19:51:17.857Z,17.97
2018-07-13T19:53:46.172Z,17.92
2018-07-13T19:56:14.425Z,17.75
2018-07-13T19:58:42.723Z,17.80
2018-07-13T20:01:13.089Z,17.86
2018-07-13T20:03:41.376Z,17.61
2018-07-13T20:06:09.676Z,17.42
2018-07-13T20:08:37.976Z,17.50
2018-07-13T20:11:07.361Z,17.33
2018-07-13T20:13:35.589Z,17.28
2018-07-13T20:16:03.863Z,17.25
2018-07-13T20:18:32.153Z,17.30
2018-07-13T20:21:02.456Z,17.43
2018-07-13T20:23:30.757Z,17.29
2018-07-13T20:25:59.009Z,17.31
2018-07-13T20:28:27.269Z,17.15
2018-07-13T20:30:55.558Z,17.08
2018-07-13T20:33:23.893Z,17.15
2018-07-13T20:35:52.109Z,17.00
2018-07-13T20:38:20.353Z,16.69
2018-07-13T20:40:48.623Z,16.59
2018-07-13T20:43:16.873Z,16.65
2018-07-13T20:45:45.157Z,16.95
2018-07-13T20:48:13.414Z,16.97
2018-07-13T20:50:41.737Z,16.85
2018-07-13T20:53:10.180Z,16.51
2018-07-13T20:55:38.485Z,16.63
2018-07-13T20:58:07.193Z,16.69
2018-07-13T21:00:35.481Z,16.53
2018-07-13T21:03:04.187Z,16.44
2018-07-13T21:05:32.401Z,16.23
2018-07-13T21:08:01.733Z,16.20
2018-07-13T21:10:30.046Z,16.16
2018-07-13T21:12:59.345Z,16.05
2018-07-13T21:15:27.646Z,16.08
2018-07-13T21:17:55.893Z,16.19
2018-07-13T21:20:25.186Z,16.06
2018-07-13T21:22:53.477Z,16.02
2018-07-13T21:25:21.741Z,16.01
2018-07-13T21:27:50.046Z,15.95
2018-07-13T21:30:18.343Z,16.12
2018-07-13T21:32:46.637Z,15.98
2018-07-13T21:35:15.916Z,15.86
2018-07-13T21:37:44.193Z,15.80
2018-07-13T21:40:12.509Z,15.68
2018-07-13T21:42:40.926Z,15.74
2018-07-13T21:45:09.314Z,15.62
2018-07-13T21:47:37.588Z,15.60
2018-07-13T21:50:06.876Z,15.59
2018-07-13T21:52:36.217Z,15.59
2018-07-13T21:55:04.553Z,15.55
2018-07-13T21:57:32.936Z,15.43
2018-07-13T22:00:01.185Z,15.62
2018-07-13T22:02:29.444Z,15.55
2018-07-13T22:04:57.745Z,15.46
2018-07-13T22:07:27.013Z,15.28
2018-07-13T22:09:55.285Z,15.37
2018-07-13T22:12:23.541Z,15.41
2018-07-13T22:14:51.898Z,15.35
2018-07-13T22:17:20.156Z,15.36
2018-07-13T22:19:48.433Z,15.25
2018-07-13T22:22:16.680Z,15.13
2018-07-13T22:24:44.984Z,15.23
2018-07-13T22:27:13.249Z,15.21
2018-07-13T22:29:41.545Z,15.29
2018-07-13T22:32:09.805Z,15.30
2018-07-13T22:34:38.093Z,15.20
2018-07-13T22:37:06.355Z,15.26
2018-07-13T22:39:34.621Z,15.39
2018-07-13T22:42:02.891Z,15.25
2018-07-13T22:44:31.174Z,15.26
2018-07-13T22:46:59.420Z,15.28
2018-07-13T22:49:27.726Z,15.20
2018-07-13T22:51:55.976Z,15.26
2018-07-13T22:54:24.264Z,15.30
2018-07-13T22:56:53.597Z,15.52
2018-07-13T22:59:21.876Z,15.59
2018-07-13T23:01:51.189Z,15.61
2018-07-13T23:04:26.235Z,15.70
2018-07-13T23:06:56.061Z,15.94
2018-07-13T23:09:28.229Z,15.92
2018-07-13T23:11:57.595Z,15.91
2018-07-13T23:14:36.464Z,15.72
2018-07-13T23:17:04.761Z,15.73
2018-07-13T23:19:35.116Z,15.61
2018-07-13T23:22:04.462Z,15.75
2018-07-13T23:24:32.778Z,15.93
2018-07-13T23:27:10.506Z,16.05
2018-07-13T23:29:38.889Z,16.06
2018-07-13T23:32:07.187Z,15.85
2018-07-13T23:34:35.470Z,15.85
2018-07-13T23:37:04.829Z,15.72
2018-07-13T23:39:33.129Z,15.66
2018-07-13T23:42:01.486Z,15.72
2018-07-13T23:44:31.812Z,15.70
2018-07-13T23:47:00.106Z,15.82
2018-07-13T23:49:28.336Z,15.69
2018-07-13T23:51:56.609Z,15.79
2018-07-13T23:54:24.877Z,15.88
2018-07-13T23:56:53.205Z,15.94
2018-07-13T23:59:21.471Z,15.74
